Terminal Aerodrome Forecast
Issued by NWS Cleveland, OH

Home | Current Version | Previous Version | Text Only | Print | Product List | Glossary Off
Versions: 1 2 3 4 5 6 7 8 9 10 11 12 13 14 15 16

000
FTUS41 KCLE 251120
TAFMFD
TAF
KMFD 251120Z 2512/2612 20005KT P6SM BKN250
     FM251700 20010G18KT P6SM SCT050 BKN100
     FM260000 17006KT P6SM FEW100 BKN200
     FM261000 19006KT 6SM BR OVC030=

USA.gov is the U.S. government's official web portal to all federal, state and local government web resources and services.